Time;durP1;ratioP1;P1;durP2;ratioP2;P2;SDS_P1;SDS_P2;PMS_P1;PMS_P2;Temp;Humidity;BMP_temperature;BMP_pressure;BME280_temperature;BME280_humidity;BME280_pressure;Samples;Min_cycle;Max_cycle;Signal;HPM_P1;HPM_P2
2021/10/13 00:00:14;;;;;;;5.50;1.98;;;;;;;10.81;69.46;101305.16;4988351;28;20058;-50
2021/10/13 00:02:40;;;;;;;8.07;1.35;;;;;;;10.83;69.27;101302.56;4985253;28;20069;-49
2021/10/13 00:05:08;;;;;;;4.55;1.48;;;;;;;10.84;69.75;101306.91;4996399;28;20394;-49
2021/10/13 00:07:35;;;;;;;4.45;1.20;;;;;;;10.82;69.39;101303.41;4991017;28;20108;-50
2021/10/13 00:10:02;;;;;;;5.20;0.95;;;;;;;10.83;70.02;101300.84;4994672;28;20606;-50
2021/10/13 00:12:32;;;;;;;7.72;1.08;;;;;;;10.83;69.85;101299.97;4990776;28;20054;-50
2021/10/13 00:14:58;;;;;;;5.72;1.17;;;;;;;10.83;69.49;101307.72;4991889;28;20046;-50
2021/10/13 00:17:25;;;;;;;3.17;0.73;;;;;;;10.83;70.04;101302.56;4985593;28;20833;-49
2021/10/13 00:19:52;;;;;;;4.07;1.42;;;;;;;10.83;69.58;101298.25;4989825;28;20055;-50
2021/10/13 00:22:18;;;;;;;7.07;1.10;;;;;;;10.80;69.50;101301.66;4990706;28;20044;-50
2021/10/13 00:24:45;;;;;;;4.30;0.63;;;;;;;10.80;69.90;101303.38;4989015;28;20050;-51
2021/10/13 00:27:11;;;;;;;2.10;0.45;;;;;;;10.78;69.73;101303.34;4989383;28;20046;-52
2021/10/13 00:29:38;;;;;;;5.05;0.70;;;;;;;10.78;69.50;101305.94;4986869;28;20093;-53
2021/10/13 00:32:05;;;;;;;1.70;0.60;;;;;;;10.79;69.44;101309.41;4988655;28;20054;-52
2021/10/13 00:34:32;;;;;;;4.00;0.70;;;;;;;10.78;69.87;101310.28;4989991;28;20100;-51
2021/10/13 00:36:59;;;;;;;3.65;0.68;;;;;;;10.78;70.00;101312.88;4988151;28;20108;-51
2021/10/13 00:39:26;;;;;;;3.25;0.50;;;;;;;10.76;69.53;101306.78;4993829;28;20050;-48
2021/10/13 00:41:52;;;;;;;7.32;0.82;;;;;;;10.74;70.11;101301.56;4994474;28;20497;-53
2021/10/13 00:44:20;;;;;;;5.53;1.50;;;;;;;10.74;69.57;101311.06;4992319;28;20050;-50
2021/10/13 00:46:47;;;;;;;3.20;0.50;;;;;;;10.73;70.39;101312.78;4989609;28;20584;-50
2021/10/13 00:49:14;;;;;;;1.08;0.60;;;;;;;10.73;69.64;101305.00;4988580;28;20062;-49
2021/10/13 00:51:40;;;;;;;3.75;0.65;;;;;;;10.73;69.73;101310.19;4990673;28;20588;-52
2021/10/13 00:54:09;;;;;;;5.43;0.47;;;;;;;10.74;69.62;101311.06;4988567;28;20077;-52
2021/10/13 00:56:36;;;;;;;3.00;0.57;;;;;;;10.72;70.22;101308.44;4996320;28;20099;-51
2021/10/13 00:59:02;;;;;;;3.10;0.70;;;;;;;10.72;70.19;101308.44;4991206;28;20050;-49
2021/10/13 01:01:34;;;;;;;4.78;0.80;;;;;;;10.71;69.91;101301.50;4984704;28;20116;-50
2021/10/13 01:04:20;;;;;;;4.57;0.82;;;;;;;10.68;70.29;101298.88;5006212;28;20077;-51
2021/10/13 01:07:03;;;;;;;2.35;0.45;;;;;;;10.67;69.61;101295.41;4990446;28;20106;-49
2021/10/13 01:09:39;;;;;;;1.55;0.50;;;;;;;10.70;69.92;101299.75;4988323;28;20081;-49
2021/10/13 01:12:30;;;;;;;4.30;0.40;;;;;;;10.68;69.11;101298.88;4986244;28;20136;-50
2021/10/13 01:15:24;;;;;;;7.60;0.95;;;;;;;10.63;68.78;101300.50;4986612;28;20050;-49
2021/10/13 01:18:13;;;;;;;4.18;0.55;;;;;;;10.61;69.31;101300.47;5005457;28;20057;-49
2021/10/13 01:20:59;;;;;;;5.03;0.93;;;;;;;10.62;69.44;101306.53;4989231;28;20046;-49
2021/10/13 01:23:48;;;;;;;3.80;0.68;;;;;;;10.60;69.39;101297.88;4991841;28;20118;-52
2021/10/13 01:26:26;;;;;;;5.50;1.27;;;;;;;10.61;69.60;101299.63;4999394;28;20409;-50
2021/10/13 01:29:00;;;;;;;2.40;0.50;;;;;;;10.62;69.71;101306.53;4969095;28;20737;-49
2021/10/13 01:31:36;;;;;;;1.52;0.50;;;;;;;10.61;69.64;101302.22;4991714;28;20054;-49
2021/10/13 01:34:10;;;;;;;2.67;0.63;;;;;;;10.60;69.13;101300.47;4990699;28;20054;-51
2021/10/13 01:36:40;;;;;;;2.53;0.55;;;;;;;10.60;69.69;101297.88;4991538;28;20049;-50
2021/10/13 01:39:08;;;;;;;3.30;0.75;;;;;;;10.60;69.46;101292.69;4990430;28;20049;-51
2021/10/13 01:41:37;;;;;;;3.25;0.43;;;;;;;10.61;69.52;101289.25;4988106;28;20042;-49
2021/10/13 01:44:05;;;;;;;2.92;0.63;;;;;;;10.58;69.54;101284.00;4999403;28;20046;-49
2021/10/13 01:46:32;;;;;;;3.83;0.73;;;;;;;10.58;69.79;101281.44;4989739;28;20449;-49
2021/10/13 01:49:06;;;;;;;2.38;0.45;;;;;;;10.57;69.87;101284.88;4993098;28;20049;-49
2021/10/13 01:51:34;;;;;;;3.90;0.90;;;;;;;10.57;69.64;101272.78;4993573;28;20111;-50
2021/10/13 01:54:02;;;;;;;1.48;0.55;;;;;;;10.56;69.93;101271.03;4992242;28;20398;-50
2021/10/13 01:56:30;;;;;;;3.83;0.55;;;;;;;10.57;69.60;101271.91;4980718;28;20080;-49
2021/10/13 01:59:02;;;;;;;1.95;0.70;;;;;;;10.56;69.75;101270.16;4983611;28;20085;-50
2021/10/13 02:01:31;;;;;;;3.63;0.68;;;;;;;10.54;69.58;101273.59;4994984;28;20494;-49
2021/10/13 02:04:03;;;;;;;4.72;0.88;;;;;;;10.53;69.82;101277.03;4988150;28;20129;-49
2021/10/13 02:06:40;;;;;;;1.30;0.55;;;;;;;10.52;69.83;101275.31;4993472;28;20073;-50
2021/10/13 02:09:08;;;;;;;3.72;0.73;;;;;;;10.51;70.03;101272.69;5003260;28;20053;-50
2021/10/13 02:11:35;;;;;;;4.85;0.88;;;;;;;10.49;69.71;101277.84;4990502;28;20094;-49
2021/10/13 02:14:07;;;;;;;3.05;0.50;;;;;;;10.53;70.03;101281.34;4990509;28;20066;-50
2021/10/13 02:16:36;;;;;;;3.63;0.70;;;;;;;10.54;70.13;101281.38;4990994;28;20521;-50
2021/10/13 02:19:05;;;;;;;2.88;0.70;;;;;;;10.56;70.04;101283.09;4986898;28;20046;-50
2021/10/13 02:21:36;;;;;;;2.20;0.90;;;;;;;10.54;70.16;101281.38;4989456;28;20105;-49
2021/10/13 02:24:04;;;;;;;4.78;0.95;;;;;;;10.56;70.34;101280.50;4994662;28;20050;-49
2021/10/13 02:26:38;;;;;;;2.70;0.50;;;;;;;10.56;70.47;101285.69;4989297;28;20058;-49
2021/10/13 02:29:11;;;;;;;1.00;0.73;;;;;;;10.56;70.02;101280.50;4989718;28;20483;-49
2021/10/13 02:31:38;;;;;;;5.63;0.68;;;;;;;10.54;70.42;101278.78;4991496;28;20050;-49
2021/10/13 02:34:05;;;;;;;2.90;0.40;;;;;;;10.56;69.92;101283.09;4990556;28;20072;-48
2021/10/13 02:36:32;;;;;;;1.48;0.50;;;;;;;10.52;70.17;101280.47;4994816;28;20077;-49
2021/10/13 02:38:59;;;;;;;2.65;0.52;;;;;;;10.52;70.10;101290.84;4990878;28;20051;-49
2021/10/13 02:41:26;;;;;;;5.43;0.95;;;;;;;10.49;69.97;101284.72;4987317;28;20113;-49
2021/10/13 02:43:52;;;;;;;2.58;0.45;;;;;;;10.46;70.48;101285.53;4994310;28;20434;-50
2021/10/13 02:46:30;;;;;;;3.53;0.63;;;;;;;10.41;69.49;101292.34;4990755;28;20073;-51
2021/10/13 02:49:05;;;;;;;3.30;0.73;;;;;;;10.38;70.14;101290.56;4988802;28;20053;-53
2021/10/13 02:51:45;;;;;;;2.35;0.75;;;;;;;10.33;69.82;101291.34;4985924;28;20097;-51
2021/10/13 02:54:23;;;;;;;4.60;0.73;;;;;;;10.29;70.49;101287.78;4987453;28;20670;-51
2021/10/13 02:56:53;;;;;;;1.65;0.63;;;;;;;10.28;70.40;101286.06;4988112;28;20050;-49
2021/10/13 02:59:23;;;;;;;;;;;;;;;10.10;71.16;101282.25;4984096;28;20557;-51
2021/10/13 03:01:56;;;;;;;3.20;0.98;;;;;;;10.13;70.50;101271.09;4988079;28;20546;-49
2021/10/13 03:04:28;;;;;;;3.15;0.50;;;;;;;10.08;70.62;101272.72;4986596;28;20052;-48
2021/10/13 03:07:01;;;;;;;5.32;0.80;;;;;;;10.01;70.90;101272.63;4988534;28;20372;-49
2021/10/13 03:09:29;;;;;;;2.67;0.60;;;;;;;9.94;70.84;101275.94;4987113;28;20046;-50
2021/10/13 03:12:00;;;;;;;5.07;0.75;;;;;;;9.87;70.92;101276.66;4987056;28;20046;-49
2021/10/13 03:14:29;;;;;;;2.35;0.70;;;;;;;9.80;70.93;101273.09;4987447;28;20208;-50
2021/10/13 03:16:57;;;;;;;2.47;0.52;;;;;;;9.74;71.12;101281.59;4995055;28;20070;-51
2021/10/13 03:19:26;;;;;;;4.13;1.05;;;;;;;9.69;71.35;101280.59;4983847;28;20399;-53
2021/10/13 03:21:54;;;;;;;7.65;1.02;;;;;;;9.63;71.05;101280.50;4988247;28;20045;-50
2021/10/13 03:24:20;;;;;;;4.90;0.68;;;;;;;9.57;70.98;101270.88;4989428;28;20096;-49
2021/10/13 03:26:48;;;;;;;1.40;0.63;;;;;;;9.52;71.58;101283.72;4988619;28;20462;-51
2021/10/13 03:29:15;;;;;;;2.80;0.63;;;;;;;9.48;70.91;101289.66;4994218;28;20104;-50
2021/10/13 03:31:42;;;;;;;3.42;0.80;;;;;;;9.42;71.48;101281.75;4987709;28;20051;-49
2021/10/13 03:34:10;;;;;;;5.07;2.13;;;;;;;9.38;71.11;101285.13;4993021;28;20441;-51
2021/10/13 03:36:39;;;;;;;6.07;0.73;;;;;;;9.34;71.46;101280.72;4988343;28;20055;-50
2021/10/13 03:39:05;;;;;;;3.78;0.93;;;;;;;9.30;71.86;101284.06;4990734;28;20096;-50
2021/10/13 03:41:32;;;;;;;3.25;1.00;;;;;;;9.30;72.14;101292.72;4992535;28;20112;-51
2021/10/13 03:43:58;;;;;;;3.75;0.65;;;;;;;9.29;71.36;101284.94;4998851;28;20431;-52
2021/10/13 03:46:25;;;;;;;2.53;0.70;;;;;;;9.31;71.73;101288.41;4992762;28;20588;-50
2021/10/13 03:48:52;;;;;;;13.23;1.15;;;;;;;9.32;72.03;101290.16;4996174;28;20509;-50
2021/10/13 03:51:19;;;;;;;5.60;0.60;;;;;;;9.35;71.85;101285.03;4995515;28;20046;-51
2021/10/13 03:53:46;;;;;;;4.40;0.93;;;;;;;9.36;70.97;101289.41;4992266;28;20506;-53
2021/10/13 03:56:14;;;;;;;2.30;0.77;;;;;;;9.37;72.03;101288.56;4990811;28;20081;-49
2021/10/13 03:58:41;;;;;;;3.17;0.82;;;;;;;9.40;71.76;101293.78;4991330;28;20454;-51
2021/10/13 04:01:08;;;;;;;3.25;0.82;;;;;;;9.43;71.60;101287.81;4994573;28;20108;-49
2021/10/13 04:03:35;;;;;;;2.60;0.55;;;;;;;9.45;71.97;101297.34;4993130;28;20066;-49
2021/10/13 04:06:01;;;;;;;2.83;0.90;;;;;;;9.46;71.35;101293.91;4995921;28;20062;-52
2021/10/13 04:08:28;;;;;;;2.05;0.63;;;;;;;9.47;72.16;101293.09;4989704;28;20058;-51
2021/10/13 04:10:55;;;;;;;5.07;0.80;;;;;;;9.47;72.17;101290.50;4991932;28;20382;-51
2021/10/13 04:13:21;;;;;;;7.28;0.85;;;;;;;9.48;71.23;101292.25;4990217;28;20105;-52
2021/10/13 04:15:48;;;;;;;2.60;0.70;;;;;;;9.47;71.28;101285.34;4994146;28;20078;-52
2021/10/13 04:18:15;;;;;;;2.22;0.68;;;;;;;9.44;71.96;101290.44;5004247;28;20054;-52
2021/10/13 04:20:41;;;;;;;5.28;1.25;;;;;;;9.39;71.71;101287.75;4993594;28;20053;-52
2021/10/13 04:23:08;;;;;;;7.53;0.57;;;;;;;9.35;71.58;101282.47;4985896;28;20050;-54
2021/10/13 04:25:34;;;;;;;8.20;0.88;;;;;;;9.29;72.01;101284.94;4992617;28;20047;-52
2021/10/13 04:28:01;;;;;;;5.57;1.10;;;;;;;9.24;71.84;101285.69;4991977;28;20057;-50
2021/10/13 04:30:28;;;;;;;5.03;1.00;;;;;;;9.20;72.06;101294.22;4990229;28;20116;-53
2021/10/13 04:32:54;;;;;;;3.83;0.70;;;;;;;9.14;72.16;101291.47;4992211;28;20081;-51
2021/10/13 04:35:22;;;;;;;3.67;0.80;;;;;;;9.09;72.04;101293.94;4991624;28;20054;-53
2021/10/13 04:37:48;;;;;;;3.97;0.70;;;;;;;9.05;71.68;101296.44;4987669;28;20054;-52
2021/10/13 04:40:15;;;;;;;3.72;0.82;;;;;;;8.99;71.97;101303.19;4998967;28;20081;-51
2021/10/13 04:42:42;;;;;;;2.55;0.50;;;;;;;8.95;71.52;101296.22;4988541;28;20054;-49
2021/10/13 04:45:09;;;;;;;5.93;0.80;;;;;;;8.93;72.32;101291.84;4991032;28;20112;-49
2021/10/13 04:47:35;;;;;;;5.47;1.17;;;;;;;8.88;72.24;101294.31;4990682;28;20053;-50
2021/10/13 04:50:02;;;;;;;3.92;0.80;;;;;;;8.83;72.25;101285.59;4990409;28;20101;-50
2021/10/13 04:52:29;;;;;;;6.45;0.80;;;;;;;8.79;72.12;101294.97;4994195;28;20057;-49
2021/10/13 04:54:55;;;;;;;4.22;0.90;;;;;;;8.78;71.94;101289.78;4993568;28;20522;-49
2021/10/13 04:57:22;;;;;;;4.97;1.08;;;;;;;8.77;72.72;101294.06;4994933;28;20054;-53
2021/10/13 04:59:50;;;;;;;1.83;0.82;;;;;;;8.76;71.81;101294.00;4988966;28;20047;-52
2021/10/13 05:02:16;;;;;;;8.63;1.00;;;;;;;8.74;71.49;101287.09;4992193;28;20050;-49
2021/10/13 05:04:43;;;;;;;3.47;0.95;;;;;;;8.73;71.87;101300.88;4989527;28;20538;-52
2021/10/13 05:07:10;;;;;;;6.10;0.95;;;;;;;8.76;72.42;101294.00;4991132;28;20093;-49
2021/10/13 05:09:36;;;;;;;5.85;1.27;;;;;;;8.78;72.59;101297.53;4992806;28;20046;-53
2021/10/13 05:12:03;;;;;;;4.68;1.48;;;;;;;8.81;71.58;101300.19;4988914;28;20054;-49
2021/10/13 05:14:30;;;;;;;4.40;1.27;;;;;;;8.83;71.94;101301.97;4994107;28;20111;-52
2021/10/13 05:16:56;;;;;;;4.30;1.17;;;;;;;8.87;71.62;101305.50;4991602;28;20529;-50
2021/10/13 05:19:23;;;;;;;2.92;0.82;;;;;;;8.92;72.48;101305.59;4991932;28;20065;-52
2021/10/13 05:21:50;;;;;;;2.53;1.77;;;;;;;8.95;71.67;101301.38;4987865;28;20101;-50
2021/10/13 05:24:16;;;;;;;4.28;0.82;;;;;;;8.98;71.81;101304.03;4996328;28;20038;-51
2021/10/13 05:26:43;;;;;;;3.08;1.00;;;;;;;9.03;72.50;101303.28;4991943;28;20128;-49
2021/10/13 05:29:09;;;;;;;3.28;0.82;;;;;;;9.08;71.70;101296.50;4993435;28;20054;-51
2021/10/13 05:31:36;;;;;;;5.82;1.25;;;;;;;9.12;71.66;101298.34;4985213;28;20043;-52
2021/10/13 05:34:03;;;;;;;4.10;0.85;;;;;;;9.13;72.50;101306.09;4992162;28;20161;-53
2021/10/13 05:36:29;;;;;;;6.55;0.90;;;;;;;9.16;72.83;101304.44;4988132;28;20105;-53
2021/10/13 05:38:56;;;;;;;2.63;1.00;;;;;;;9.20;72.45;101306.25;4991451;28;20054;-52
2021/10/13 05:41:24;;;;;;;3.67;0.98;;;;;;;9.21;72.72;101303.72;4987894;28;20050;-52
2021/10/13 05:43:50;;;;;;;4.18;1.00;;;;;;;9.24;72.18;101298.63;4987483;28;20102;-52
2021/10/13 05:46:17;;;;;;;3.92;1.05;;;;;;;9.25;72.55;101294.31;4990911;28;20674;-52
2021/10/13 05:48:44;;;;;;;4.93;0.98;;;;;;;9.26;72.68;101296.94;4989728;28;20046;-49
2021/10/13 05:51:10;;;;;;;8.13;1.58;;;;;;;9.28;72.71;101293.53;4987490;28;20050;-53
2021/10/13 05:53:37;;;;;;;2.38;1.15;;;;;;;9.30;72.35;101297.00;4995584;28;20042;-52
2021/10/13 05:56:04;;;;;;;8.52;1.98;;;;;;;9.33;72.67;101307.41;4994131;28;20784;-50
2021/10/13 05:58:31;;;;;;;3.03;0.95;;;;;;;9.34;72.15;101306.56;4987426;28;20042;-51
2021/10/13 06:00:58;;;;;;;6.70;1.00;;;;;;;9.36;72.17;101308.34;4988549;28;20105;-49
2021/10/13 06:03:25;;;;;;;5.93;1.40;;;;;;;9.37;72.36;101293.72;4991984;28;20126;-49
2021/10/13 06:05:52;;;;;;;5.50;1.55;;;;;;;9.38;72.45;101295.47;4992461;28;20054;-51
2021/10/13 06:08:20;;;;;;;8.27;0.85;;;;;;;9.38;73.08;101296.34;4988888;28;20180;-50
2021/10/13 06:10:47;;;;;;;5.75;1.05;;;;;;;9.38;72.56;101290.28;4990699;28;20046;-51
2021/10/13 06:13:13;;;;;;;3.97;1.05;;;;;;;9.38;72.96;101290.28;4988601;28;20046;-48
2021/10/13 06:15:41;;;;;;;4.00;0.70;;;;;;;9.39;72.79;101289.44;4982416;28;20058;-49
2021/10/13 06:18:08;;;;;;;6.07;0.98;;;;;;;9.41;73.07;101295.53;4980557;28;20478;-51
2021/10/13 06:20:35;;;;;;;2.63;0.93;;;;;;;9.43;73.24;101299.03;4987811;28;20046;-49
2021/10/13 06:23:03;;;;;;;4.03;1.13;;;;;;;9.45;72.53;101297.34;4988124;28;20049;-50
2021/10/13 06:25:29;;;;;;;2.65;1.20;;;;;;;9.49;73.00;101299.16;4982774;28;20046;-51
2021/10/13 06:27:56;;;;;;;3.45;1.15;;;;;;;9.50;72.61;101295.72;4986487;28;20050;-50
2021/10/13 06:30:23;;;;;;;4.78;1.45;;;;;;;9.54;72.70;101293.22;4984050;28;20053;-51
2021/10/13 06:32:49;;;;;;;3.78;0.88;;;;;;;9.56;72.84;101301.88;4986081;28;20053;-52
2021/10/13 06:35:16;;;;;;;5.93;0.90;;;;;;;9.58;73.02;101297.59;4987262;28;20061;-51
2021/10/13 06:37:43;;;;;;;4.43;1.15;;;;;;;9.58;73.26;101297.59;4986452;28;20564;-51
2021/10/13 06:40:10;;;;;;;3.78;1.13;;;;;;;9.60;72.89;101301.13;4987302;28;20652;-52
2021/10/13 06:42:36;;;;;;;4.57;1.30;;;;;;;9.62;73.00;101305.47;4990208;28;20120;-52
2021/10/13 06:45:03;;;;;;;7.72;1.00;;;;;;;9.64;73.10;101305.50;4986880;28;20046;-52
2021/10/13 06:47:30;;;;;;;3.58;1.02;;;;;;;9.65;73.16;101304.66;4990878;28;20050;-53
2021/10/13 06:49:56;;;;;;;2.28;1.20;;;;;;;9.67;73.22;101312.47;4988194;28;20089;-52
2021/10/13 06:52:23;;;;;;;5.18;0.70;;;;;;;9.69;73.21;101310.78;4987190;28;20077;-49
2021/10/13 06:54:49;;;;;;;4.53;1.52;;;;;;;9.71;73.54;101315.16;4987377;28;20051;-50
2021/10/13 06:57:16;;;;;;;4.20;1.13;;;;;;;9.72;73.32;101316.88;4986413;28;20105;-50
2021/10/13 06:59:43;;;;;;;3.55;1.45;;;;;;;9.76;73.02;101320.41;4991492;28;20045;-53
2021/10/13 07:02:10;;;;;;;6.30;1.23;;;;;;;9.77;73.85;101314.41;4985772;28;21469;-50
2021/10/13 07:04:37;;;;;;;4.15;1.75;;;;;;;9.80;73.58;101319.66;4992060;28;20467;-50
2021/10/13 07:07:04;;;;;;;2.97;1.23;;;;;;;9.83;73.69;101316.25;4989796;28;20039;-50
2021/10/13 07:09:30;;;;;;;3.78;1.00;;;;;;;9.83;73.40;101316.25;4988212;28;20042;-49
2021/10/13 07:11:57;;;;;;;5.55;1.25;;;;;;;9.86;73.71;101326.69;4986214;28;20053;-51
2021/10/13 07:14:24;;;;;;;5.85;1.88;;;;;;;9.90;73.85;101331.94;4986231;28;20050;-51
2021/10/13 07:16:51;;;;;;;4.65;1.33;;;;;;;9.93;73.71;101325.94;4987042;28;20066;-51
2021/10/13 07:19:17;;;;;;;4.75;0.93;;;;;;;9.97;73.96;101332.91;4987813;28;20097;-50
2021/10/13 07:21:44;;;;;;;6.45;1.45;;;;;;;10.00;73.50;101321.78;4985059;28;20087;-50
2021/10/13 07:24:11;;;;;;;4.63;1.23;;;;;;;10.03;73.77;101322.69;4984759;28;20042;-49
2021/10/13 07:26:39;;;;;;;11.52;1.55;;;;;;;10.06;73.56;101321.03;4988635;28;20077;-50
2021/10/13 07:29:06;;;;;;;4.30;1.10;;;;;;;10.07;73.00;101330.53;4988849;28;20109;-50
2021/10/13 07:31:33;;;;;;;8.98;1.38;;;;;;;10.10;73.85;101328.00;4991356;28;20101;-51
2021/10/13 07:34:00;;;;;;;5.43;1.25;;;;;;;10.12;73.42;101324.59;4989411;28;20096;-51
2021/10/13 07:36:26;;;;;;;3.67;1.25;;;;;;;10.17;73.84;101324.69;4987526;28;20058;-50
2021/10/13 07:38:54;;;;;;;4.70;1.33;;;;;;;10.18;74.11;101329.03;4999598;28;20101;-50
2021/10/13 07:41:21;;;;;;;5.32;1.80;;;;;;;10.21;73.74;101334.28;4985611;28;20046;-49
2021/10/13 07:43:47;;;;;;;3.03;1.33;;;;;;;10.22;74.05;101323.06;4993252;28;20046;-50
2021/10/13 07:46:15;;;;;;;4.80;0.98;;;;;;;10.25;74.08;101328.31;4991285;28;20121;-50
2021/10/13 07:48:41;;;;;;;5.30;1.38;;;;;;;10.26;73.67;101324.88;4984470;28;20474;-51
2021/10/13 07:51:08;;;;;;;6.70;1.42;;;;;;;10.26;73.72;101324.88;4988714;28;20057;-50
2021/10/13 07:53:35;;;;;;;6.07;1.20;;;;;;;10.27;74.04;101331.78;4985826;28;20047;-50
2021/10/13 07:56:02;;;;;;;6.60;1.55;;;;;;;10.32;74.46;101333.59;4991427;28;20061;-50
2021/10/13 07:58:28;;;;;;;4.97;1.33;;;;;;;10.39;74.24;101335.44;4989128;28;20046;-49
2021/10/13 08:00:55;;;;;;;6.90;1.30;;;;;;;10.47;74.27;101333.06;4986711;28;20104;-49
2021/10/13 08:03:22;;;;;;;4.13;1.50;;;;;;;10.57;74.65;101334.09;4987529;28;20058;-49
2021/10/13 08:05:50;;;;;;;5.82;1.30;;;;;;;10.65;74.50;101337.69;4997110;28;20561;-51
2021/10/13 08:08:17;;;;;;;8.50;1.75;;;;;;;10.70;74.56;101330.84;4990258;28;20072;-50
2021/10/13 08:10:43;;;;;;;8.15;1.50;;;;;;;10.74;74.12;101327.47;4993190;28;20092;-51
2021/10/13 08:13:10;;;;;;;7.57;1.75;;;;;;;10.77;74.26;101326.66;4989382;28;20129;-52
2021/10/13 08:15:37;;;;;;;6.70;1.40;;;;;;;10.85;73.65;101324.19;4987403;28;20146;-49
2021/10/13 08:18:04;;;;;;;7.28;2.15;;;;;;;10.95;74.20;101331.28;4987803;28;20853;-50
2021/10/13 08:20:30;;;;;;;10.75;2.53;;;;;;;11.03;73.92;101329.69;4984573;28;20120;-50
2021/10/13 08:22:57;;;;;;;9.18;2.10;;;;;;;11.16;74.45;101329.88;4993803;28;20064;-50
2021/10/13 08:25:24;;;;;;;11.15;2.47;;;;;;;11.29;74.87;101329.19;4986399;28;20059;-49
2021/10/13 08:27:50;;;;;;;14.10;3.17;;;;;;;11.46;73.85;101335.50;4987812;28;20042;-49
2021/10/13 08:30:17;;;;;;;23.13;7.45;;;;;;;11.64;74.08;101333.16;4987734;28;20065;-49
2021/10/13 08:32:43;;;;;;;27.67;8.82;;;;;;;11.81;74.18;101329.91;4995208;28;20100;-50
2021/10/13 08:35:10;;;;;;;8.48;3.97;;;;;;;11.97;73.66;101336.19;4994813;28;20042;-50
2021/10/13 08:37:37;;;;;;;9.23;4.22;;;;;;;12.09;74.09;101335.47;4995980;28;20047;-49
2021/10/13 08:40:06;;;;;;;9.98;3.47;;;;;;;12.19;74.20;101336.44;4993101;28;20054;-49
2021/10/13 08:42:32;;;;;;;12.32;3.35;;;;;;;12.28;73.13;101326.16;4991044;28;20050;-49
2021/10/13 08:44:59;;;;;;;10.77;3.50;;;;;;;12.40;74.07;101333.19;4993175;28;20047;-50
2021/10/13 08:47:26;;;;;;;8.20;3.03;;;;;;;12.46;72.56;101335.00;4987540;28;20049;-50
2021/10/13 08:49:53;;;;;;;9.60;3.30;;;;;;;12.47;73.56;101322.03;4992033;28;20104;-50
2021/10/13 08:52:19;;;;;;;12.05;3.67;;;;;;;12.57;73.59;101333.38;4991149;28;20047;-51
2021/10/13 08:54:46;;;;;;;10.13;3.80;;;;;;;12.77;72.82;101324.88;4989132;28;20104;-49
2021/10/13 08:57:20;;;;;;;11.93;4.03;;;;;;;12.95;72.95;101323.31;4985039;28;20109;-50
2021/10/13 08:59:48;;;;;;;12.25;3.55;;;;;;;13.08;72.58;101332.94;4988240;28;20050;-49
2021/10/13 09:02:17;;;;;;;12.38;3.97;;;;;;;13.17;73.18;101326.09;4997371;28;20077;-53
2021/10/13 09:05:12;;;;;;;12.45;3.97;;;;;;;13.18;72.66;101326.09;4993747;28;20101;-51
2021/10/13 09:07:45;;;;;;;13.25;3.63;;;;;;;13.23;72.48;101333.91;5000970;28;20104;-50
2021/10/13 09:10:12;;;;;;;12.48;4.40;;;;;;;13.22;73.12;101326.97;4984941;28;20103;-51
2021/10/13 09:12:40;;;;;;;16.25;5.05;;;;;;;13.26;73.23;101331.34;4990167;28;20089;-50
2021/10/13 09:15:10;;;;;;;11.80;4.18;;;;;;;13.37;72.34;101336.59;4989354;28;20042;-49
2021/10/13 09:17:54;;;;;;;;;;;;;;;13.31;72.58;101334.81;4997750;28;20137;-51
2021/10/13 09:20:25;;;;;;;30.05;9.00;;;;;;;13.40;72.32;101327.97;4988795;28;19934;-50
2021/10/13 09:23:00;;;;;;;28.02;8.93;;;;;;;13.45;72.57;101326.25;4991389;28;20050;-52
2021/10/13 09:25:27;;;;;;;18.17;6.13;;;;;;;13.60;72.49;101328.97;4992380;28;20055;-51
2021/10/13 09:27:54;;;;;;;13.10;4.78;;;;;;;13.82;72.86;101333.41;4983311;28;20054;-49
2021/10/13 09:30:39;;;;;;;16.00;5.95;;;;;;;13.92;72.37;101334.31;4992204;28;20640;-50
2021/10/13 09:33:21;;;;;;;12.18;4.63;;;;;;;13.92;72.33;101339.53;4988020;28;20046;-53
2021/10/13 09:35:50;;;;;;;10.98;3.88;;;;;;;13.91;72.99;101328.22;4984508;28;20628;-53
2021/10/13 09:38:23;;;;;;;12.27;4.47;;;;;;;13.92;72.46;101332.59;4985408;28;20116;-53
2021/10/13 09:40:58;;;;;;;11.07;3.88;;;;;;;13.98;72.91;101334.31;4987937;28;20053;-50
2021/10/13 09:43:40;;;;;;;10.50;3.90;;;;;;;14.03;72.09;101330.03;4986308;28;20054;-50
2021/10/13 09:46:14;;;;;;;12.27;4.90;;;;;;;14.19;71.83;101335.28;4984708;28;20108;-50
2021/10/13 09:48:43;;;;;;;13.05;4.93;;;;;;;14.33;72.25;101330.97;4994506;28;20185;-50
2021/10/13 09:51:16;;;;;;;14.90;4.80;;;;;;;14.38;71.72;101337.06;4986259;28;20054;-53
2021/10/13 09:53:44;;;;;;;13.45;5.30;;;;;;;14.45;71.89;101334.47;4982353;28;20229;-52
2021/10/13 09:56:32;;;;;;;11.90;4.18;;;;;;;14.47;71.49;101343.16;4985187;28;20144;-50
2021/10/13 09:59:17;;;;;;;10.27;4.20;;;;;;;14.47;72.31;101337.94;4984762;28;20050;-50
2021/10/13 10:01:46;;;;;;;13.23;5.45;;;;;;;14.56;71.74;101343.16;4983238;28;20113;-50
2021/10/13 10:04:17;;;;;;;14.85;5.90;;;;;;;14.74;71.91;101346.66;4983348;28;20057;-51
2021/10/13 10:06:48;;;;;;;13.77;5.57;;;;;;;14.79;71.38;101350.19;4993954;28;20478;-53
2021/10/13 10:09:18;;;;;;;21.42;6.93;;;;;;;14.84;71.65;101347.56;4983678;28;20490;-49
2021/10/13 10:11:46;;;;;;;;;;;;;;;14.73;71.87;101340.56;4986191;28;20451;-50
2021/10/13 10:14:41;;;;;;;19.50;6.13;;;;;;;14.71;70.75;101333.63;4981747;28;20018;-50
2021/10/13 10:17:08;;;;;;;28.95;9.10;;;;;;;14.68;71.09;101331.00;4979415;28;20050;-49
2021/10/13 10:19:41;;;;;;;13.57;5.47;;;;;;;14.65;71.22;101337.97;4980485;28;20062;-49
2021/10/13 10:22:15;;;;;;;16.50;6.63;;;;;;;14.61;71.05;101331.03;4981429;28;20051;-51
2021/10/13 10:24:53;;;;;;;12.68;4.63;;;;;;;14.59;71.83;101332.75;4980760;28;20548;-50
2021/10/13 10:27:33;;;;;;;11.95;4.78;;;;;;;14.58;71.67;101325.78;4980578;28;20074;-49
2021/10/13 10:30:15;;;;;;;12.63;4.63;;;;;;;14.55;72.03;101320.56;4980911;28;20046;-49
2021/10/13 10:32:45;;;;;;;18.25;6.00;;;;;;;14.57;71.94;101313.63;4982650;28;20046;-49
2021/10/13 10:35:16;;;;;;;13.85;5.30;;;;;;;14.64;71.70;101319.72;4982105;28;20092;-49
2021/10/13 10:37:47;;;;;;;11.60;4.50;;;;;;;14.71;71.54;101320.59;4980567;28;20064;-50
2021/10/13 10:40:35;;;;;;;13.07;5.13;;;;;;;14.73;71.67;101321.47;4983139;28;20445;-50
2021/10/13 10:43:19;;;;;;;12.30;4.88;;;;;;;14.82;71.69;101329.31;4981944;28;20473;-51
2021/10/13 10:45:54;;;;;;;13.45;4.63;;;;;;;14.95;71.83;101329.31;4981820;28;20050;-49
2021/10/13 10:48:23;;;;;;;13.68;4.38;;;;;;;15.10;72.17;101313.63;4985115;28;20090;-50
2021/10/13 10:50:58;;;;;;;19.48;7.82;;;;;;;15.18;71.43;101320.59;4985563;28;20107;-50
2021/10/13 10:53:29;;;;;;;13.60;6.20;;;;;;;15.24;71.44;101323.22;4995860;28;20057;-48
2021/10/13 10:56:18;;;;;;;17.75;7.57;;;;;;;15.20;71.17;101324.09;4995115;28;20564;-51
2021/10/13 10:59:00;;;;;;;13.48;5.43;;;;;;;15.16;71.00;101318.88;4982951;28;20046;-51
2021/10/13 11:01:27;;;;;;;14.07;6.57;;;;;;;15.15;71.17;101317.13;4987862;28;20057;-50
2021/10/13 11:03:54;;;;;;;13.00;4.97;;;;;;;15.07;71.18;101316.28;4982007;28;20054;-51
2021/10/13 11:06:26;;;;;;;11.48;4.25;;;;;;;15.00;71.91;101314.53;4983660;28;20756;-53
2021/10/13 11:09:02;;;;;;;10.73;4.13;;;;;;;14.92;71.45;101316.28;4981777;28;20190;-51
2021/10/13 11:11:33;;;;;;;10.57;4.40;;;;;;;14.94;71.21;101322.38;4983977;28;20046;-54
2021/10/13 11:14:12;;;;;;;13.95;4.72;;;;;;;14.97;71.79;101307.59;4984778;28;20053;-50
2021/10/13 11:16:47;;;;;;;11.98;4.85;;;;;;;15.06;71.98;101311.91;4987430;28;20053;-50
2021/10/13 11:19:19;;;;;;;7.78;3.80;;;;;;;15.15;71.37;101304.09;4983467;28;20065;-52
2021/10/13 11:21:53;;;;;;;9.77;3.83;;;;;;;15.25;70.87;101314.50;4984544;28;20054;-49
2021/10/13 11:24:19;;;;;;;6.18;2.88;;;;;;;15.30;70.90;101310.13;4982260;28;20505;-51
2021/10/13 11:26:46;;;;;;;7.45;2.92;;;;;;;15.32;70.87;101303.19;4985962;28;20042;-50
2021/10/13 11:29:17;;;;;;;7.18;3.28;;;;;;;15.32;70.58;101303.19;4981669;28;20050;-52
2021/10/13 11:31:43;;;;;;;6.15;3.15;;;;;;;15.35;70.35;101311.00;4985855;28;20054;-48
2021/10/13 11:34:12;;;;;;;5.97;3.08;;;;;;;15.32;70.56;101308.41;4983312;28;20488;-50
2021/10/13 11:36:48;;;;;;;12.13;3.67;;;;;;;15.31;70.09;101311.88;4984665;28;20537;-51